Time;durP1;ratioP1;P1;durP2;ratioP2;P2;SDS_P1;SDS_P2;PMS_P1;PMS_P2;Temp;Humidity;BMP_temperature;BMP_pressure;BME280_temperature;BME280_humidity;BME280_pressure;Samples;Min_cycle;Max_cycle;Signal;HPM_P1;HPM_P2
2021/04/12 00:03:02;;;;;;;0.90;0.90;;;15.40;28.10;;;;;;10492940;28;20357;-73
2021/04/12 00:08:12;;;;;;;1.00;1.00;;;15.40;28.30;;;;;;10488878;28;20309;-73
2021/04/12 00:13:25;;;;;;;1.20;1.20;;;15.40;28.20;;;;;;10484194;28;20619;-73
2021/04/12 00:18:32;;;;;;;1.40;1.30;;;15.40;28.30;;;;;;10490504;28;20713;-73
2021/04/12 00:23:42;;;;;;;1.40;1.10;;;15.30;28.30;;;;;;10486838;28;20327;-73
2021/04/12 00:28:48;;;;;;;1.30;1.30;;;15.30;28.60;;;;;;10490428;28;20228;-73
2021/04/12 00:33:58;;;;;;;1.50;1.40;;;15.30;28.50;;;;;;10490359;28;20282;-73
2021/04/12 00:39:04;;;;;;;1.40;1.40;;;15.20;29.10;;;;;;10489960;28;20256;-73
2021/04/12 00:44:16;;;;;;;1.73;1.63;;;15.20;28.70;;;;;;10486169;28;20311;-73
2021/04/12 00:49:43;;;;;;;2.07;1.97;;;15.10;29.60;;;;;;10481699;28;20318;-73
2021/04/12 00:54:57;;;;;;;2.47;2.37;;;15.10;30.50;;;;;;10485614;28;20232;-72
2021/04/12 01:00:08;;;;;;;2.60;2.50;;;15.10;29.70;;;;;;10486469;28;20346;-72
2021/04/12 01:05:25;;;;;;;2.80;2.70;;;15.00;29.80;;;;;;10489137;28;20228;-73
2021/04/12 01:10:47;;;;;;;2.90;2.80;;;15.00;30.00;;;;;;10481863;28;20314;-73
2021/04/12 01:16:19;;;;;;;3.00;2.83;;;15.00;30.10;;;;;;10488393;28;20323;-73
2021/04/12 01:21:58;;;;;;;3.07;2.87;;;14.90;30.10;;;;;;10480309;28;20322;-73
2021/04/12 01:28:02;;;;;;;2.77;2.67;;;14.80;30.30;;;;;;10487653;28;20254;-73
2021/04/12 01:33:36;;;;;;;3.00;2.80;;;14.70;31.80;;;;;;10319849;28;20277;-73
2021/04/12 01:38:43;;;;;;;2.60;2.40;;;14.60;30.40;;;;;;10479546;28;20668;-72
2021/04/12 01:44:13;;;;;;;2.70;2.50;;;14.60;29.40;;;;;;10487720;28;20313;-73
2021/04/12 01:49:24;;;;;;;2.30;2.20;;;14.50;30.00;;;;;;10489211;28;20225;-73
2021/04/12 01:54:49;;;;;;;2.80;2.70;;;14.50;29.80;;;;;;10488946;28;20242;-73
2021/04/12 02:00:04;;;;;;;3.00;2.80;;;14.50;30.90;;;;;;10486360;28;20306;-73
2021/04/12 02:05:31;;;;;;;2.37;2.27;;;14.30;30.70;;;;;;10488829;28;20229;-73
2021/04/12 02:11:00;;;;;;;2.50;2.40;;;14.20;30.20;;;;;;10491238;28;20265;-72
2021/04/12 02:16:15;;;;;;;2.70;2.60;;;14.10;30.40;;;;;;10490786;28;20231;-73
2021/04/12 02:21:27;;;;;;;2.87;2.77;;;14.10;30.30;;;;;;10490657;28;20235;-72
2021/04/12 02:26:54;;;;;;;3.10;3.00;;;14.20;30.50;;;;;;10504936;28;20235;-73
2021/04/12 02:32:09;;;;;;;3.10;2.90;;;14.10;31.30;;;;;;10495051;28;20658;-73
2021/04/12 02:37:30;;;;;;;2.87;2.70;;;14.10;31.30;;;;;;10486230;28;20310;-72
2021/04/12 02:42:44;;;;;;;2.67;2.57;;;14.00;31.20;;;;;;10491900;28;20244;-73
2021/04/12 02:48:04;;;;;;;3.20;3.00;;;13.90;31.10;;;;;;10494659;28;20656;-72
2021/04/12 02:53:21;;;;;;;3.10;2.90;;;13.90;31.10;;;;;;10493157;28;20315;-73
2021/04/12 02:59:04;;;;;;;3.47;3.23;;;13.90;31.20;;;;;;10489729;28;20310;-72
2021/04/12 03:04:19;;;;;;;2.93;2.83;;;13.80;31.10;;;;;;10491899;28;20312;-73
2021/04/12 03:10:03;;;;;;;3.43;3.23;;;13.70;31.00;;;;;;10489666;28;20307;-72
2021/04/12 03:15:24;;;;;;;3.27;3.07;;;13.60;33.20;;;;;;10488428;28;20255;-73
2021/04/12 03:20:57;;;;;;;3.13;3.00;;;13.50;32.20;;;;;;10491320;28;20307;-73
2021/04/12 03:26:17;;;;;;;2.67;2.57;;;13.30;31.80;;;;;;10486631;28;20230;-72
2021/04/12 03:31:53;;;;;;;2.73;2.53;;;13.20;32.90;;;;;;10485206;28;20277;-72
2021/04/12 03:37:12;;;;;;;2.73;2.57;;;13.00;32.90;;;;;;10485879;28;20224;-72
2021/04/12 03:42:44;;;;;;;2.50;2.40;;;12.80;32.10;;;;;;10485123;28;20633;-72
2021/04/12 03:48:26;;;;;;;2.30;2.20;;;12.70;32.80;;;;;;10492705;28;20350;-72
2021/04/12 03:53:54;;;;;;;2.30;2.20;;;12.50;33.80;;;;;;10458345;28;20227;-72
2021/04/12 03:59:13;;;;;;;3.30;2.30;;;12.40;33.30;;;;;;10490016;28;20248;-72
2021/04/12 04:04:30;;;;;;;2.63;2.53;;;12.30;34.10;;;;;;10484661;28;20247;-72
2021/04/12 04:09:47;;;;;;;2.00;1.90;;;12.10;32.90;;;;;;10489552;28;20626;-73
2021/04/12 04:15:20;;;;;;;2.10;2.00;;;11.80;33.70;;;;;;10489931;28;20823;-72
2021/04/12 04:20:38;;;;;;;1.70;1.60;;;11.60;34.20;;;;;;10483625;28;20299;-73
2021/04/12 04:26:20;;;;;;;1.70;1.60;;;11.40;33.70;;;;;;10491219;28;20738;-73
2021/04/12 04:31:55;;;;;;;1.40;1.40;;;11.20;34.50;;;;;;10443988;28;20227;-73
2021/04/12 04:37:25;;;;;;;1.60;1.50;;;11.00;34.20;;;;;;10490432;28;20225;-72
2021/04/12 04:43:00;;;;;;;1.30;1.30;;;10.80;33.50;;;;;;10488450;28;20244;-72
2021/04/12 04:48:36;;;;;;;1.30;1.30;;;10.60;35.90;;;;;;10457597;28;20227;-72
2021/04/12 04:54:08;;;;;;;1.10;1.10;;;10.40;35.00;;;;;;10489780;28;20252;-73
2021/04/12 04:59:49;;;;;;;1.07;1.07;;;10.20;35.10;;;;;;10489728;28;20494;-73
2021/04/12 05:05:27;;;;;;;1.47;0.90;;;10.00;33.50;;;;;;10471743;28;20639;-73
2021/04/12 05:10:54;;;;;;;0.80;0.80;;;9.80;35.10;;;;;;10488337;28;20227;-72
2021/04/12 05:16:21;;;;;;;1.10;1.00;;;9.60;35.50;;;;;;10487552;28;20258;-72
2021/04/12 05:21:56;;;;;;;0.87;0.70;;;9.30;36.50;;;;;;10486763;28;20327;-72
2021/04/12 05:27:17;;;;;;;1.00;1.00;;;9.10;35.70;;;;;;10456059;28;20759;-72
2021/04/12 05:32:43;;;;;;;0.80;0.80;;;8.80;35.10;;;;;;10483811;28;20314;-72
2021/04/12 05:38:28;;;;;;;1.63;1.53;;;8.60;36.00;;;;;;10493588;28;20775;-73
2021/04/12 05:43:56;;;;;;;1.10;1.00;;;8.40;35.50;;;;;;10504556;28;20718;-73
2021/04/12 05:49:23;;;;;;;0.87;0.87;;;8.20;36.30;;;;;;10503092;28;20299;-73
2021/04/12 05:55:11;;;;;;;1.00;1.00;;;8.10;36.20;;;;;;10511301;28;20646;-73
2021/04/12 06:00:34;;;;;;;0.80;0.80;;;8.10;35.70;;;;;;10479628;28;20311;-72
2021/04/12 06:05:54;;;;;;;1.00;1.00;;;8.10;36.60;;;;;;10492317;28;20800;-72
2021/04/12 06:11:29;;;;;;;1.10;1.10;;;8.00;35.50;;;;;;10494771;28;20310;-72
2021/04/12 06:17:08;;;;;;;0.87;0.87;;;8.00;35.40;;;;;;10498532;28;20228;-72
2021/04/12 06:22:22;;;;;;;0.97;0.97;;;7.90;35.20;;;;;;10492091;28;20357;-72
2021/04/12 06:28:00;;;;;;;0.80;0.80;;;7.70;35.40;;;;;;10501845;28;20298;-72
2021/04/12 06:33:35;;;;;;;0.90;0.90;;;7.60;36.00;;;;;;10501769;28;20228;-72
2021/04/12 06:39:07;;;;;;;0.80;0.80;;;7.50;36.10;;;;;;10493514;28;20232;-72
2021/04/12 06:44:54;;;;;;;1.17;0.90;;;7.50;36.80;;;;;;10463047;28;20323;-71
2021/04/12 06:50:34;;;;;;;1.10;1.00;;;7.30;38.70;;;;;;10489468;28;20236;-71
2021/04/12 06:56:08;;;;;;;1.17;1.07;;;7.10;38.50;;;;;;10487967;28;20576;-71
2021/04/12 07:01:56;;;;;;;1.07;1.03;;;6.90;38.30;;;;;;10497848;28;20607;-71
2021/04/12 07:07:34;;;;;;;1.17;1.10;;;6.80;39.10;;;;;;10457956;28;20610;-71
2021/04/12 07:13:08;;;;;;;1.00;1.00;;;6.60;39.20;;;;;;10469772;28;20282;-71
2021/04/12 07:18:52;;;;;;;0.83;0.83;;;6.50;41.10;;;;;;10484883;28;20673;-71
2021/04/12 07:24:34;;;;;;;1.00;1.00;;;6.40;40.70;;;;;;10489726;28;20327;-71
2021/04/12 07:30:09;;;;;;;1.23;1.13;;;6.30;39.30;;;;;;10485203;28;20307;-71
2021/04/12 07:35:43;;;;;;;1.00;1.00;;;6.30;40.50;;;;;;10491705;28;20229;-71
2021/04/12 07:41:22;;;;;;;0.90;0.90;;;6.30;41.40;;;;;;10488750;28;20263;-72
2021/04/12 07:47:26;;;;;;;1.10;1.10;;;6.40;40.60;;;;;;10480652;28;20502;-72
2021/04/12 07:53:11;;;;;;;1.40;1.30;;;6.40;40.50;;;;;;10479371;28;20395;-72
2021/04/12 07:59:08;;;;;;;1.40;1.30;;;6.40;39.90;;;;;;10485113;28;20325;-72
2021/04/12 08:04:58;;;;;;;1.33;1.23;;;6.50;40.90;;;;;;10448669;28;20307;-71
2021/04/12 08:10:44;;;;;;;1.17;1.17;;;6.60;40.90;;;;;;10484466;28;20766;-71
2021/04/12 08:16:08;;;;;;;1.83;1.73;;;6.60;40.60;;;;;;10460444;28;20228;-71
2021/04/12 08:21:39;;;;;;;1.90;1.80;;;6.70;40.30;;;;;;10475462;28;20252;-71
2021/04/12 08:27:36;;;;;;;1.70;1.60;;;6.80;41.10;;;;;;10491225;28;20264;-71
2021/04/12 08:33:15;;;;;;;2.00;1.90;;;6.90;38.30;;;;;;10482379;28;20224;-71
2021/04/12 08:39:17;;;;;;;1.73;1.63;;;6.90;40.80;;;;;;10489826;28;20747;-71
2021/04/12 08:45:05;;;;;;;2.03;1.93;;;7.00;39.50;;;;;;10277198;28;20223;-71
2021/04/12 08:50:44;;;;;;;1.83;1.73;;;7.10;39.10;;;;;;10470284;28;20590;-72
2021/04/12 08:55:58;;;;;;;2.10;1.90;;;7.10;38.90;;;;;;10476578;28;20385;-72
2021/04/12 09:01:20;;;;;;;2.00;1.90;;;7.10;38.20;;;;;;10481621;28;20225;-72
2021/04/12 09:07:07;;;;;;;2.07;1.97;;;7.20;38.60;;;;;;10477317;28;20652;-71
2021/04/12 09:12:44;;;;;;;2.10;2.00;;;7.20;39.30;;;;;;10474033;28;20375;-72
2021/04/12 09:18:25;;;;;;;2.70;2.60;;;7.30;39.30;;;;;;10474281;28;20314;-71
2021/04/12 09:24:04;;;;;;;2.30;2.20;;;7.30;38.80;;;;;;10460617;28;20765;-71
2021/04/12 09:29:39;;;;;;;2.33;2.23;;;7.30;39.50;;;;;;10458491;28;20310;-71
2021/04/12 09:35:23;;;;;;;2.57;2.47;;;7.30;39.00;;;;;;10477007;28;20251;-71
2021/04/12 09:41:05;;;;;;;2.40;2.30;;;7.20;39.00;;;;;;10463101;28;20747;-71
2021/04/12 09:46:44;;;;;;;2.43;2.23;;;7.20;40.10;;;;;;10480885;28;20299;-71
2021/04/12 09:52:19;;;;;;;2.70;2.50;;;7.20;39.00;;;;;;10482578;28;20725;-71
2021/04/12 09:58:09;;;;;;;2.10;2.00;;;7.30;40.00;;;;;;10466027;28;20232;-71
2021/04/12 10:03:50;;;;;;;2.43;2.23;;;7.30;38.70;;;;;;10481804;28;20252;-71
2021/04/12 10:09:25;;;;;;;2.90;2.70;;;7.30;40.10;;;;;;10481554;28;20312;-71
2021/04/12 10:14:33;;;;;;;2.53;2.33;;;7.30;39.70;;;;;;10483259;28;20366;-71
2021/04/12 10:19:45;;;;;;;2.43;2.30;;;7.30;38.30;;;;;;10487367;28;20231;-71
2021/04/12 10:24:55;;;;;;;2.33;2.23;;;7.30;38.60;;;;;;10488572;28;20281;-71
2021/04/12 10:30:06;;;;;;;2.77;2.47;;;7.30;38.70;;;;;;10496229;28;20250;-71
2021/04/12 10:35:14;;;;;;;3.30;3.00;;;7.30;38.70;;;;;;10489037;28;20259;-71
2021/04/12 10:40:23;;;;;;;2.83;2.63;;;7.30;38.60;;;;;;10484777;28;20281;-71
2021/04/12 10:45:28;;;;;;;2.97;2.77;;;7.30;37.90;;;;;;10488583;28;20603;-71
2021/04/12 10:50:53;;;;;;;3.20;2.90;;;7.20;37.40;;;;;;10490135;28;20238;-70
2021/04/12 10:56:03;;;;;;;2.57;2.47;;;7.20;39.50;;;;;;10503799;28;20324;-70
2021/04/12 11:01:09;;;;;;;2.30;2.20;;;7.30;38.60;;;;;;10488975;28;21208;-71
2021/04/12 11:06:38;;;;;;;3.40;3.20;;;7.30;37.90;;;;;;10493163;28;20726;-71
2021/04/12 11:11:50;;;;;;;3.90;3.60;;;7.40;39.30;;;;;;10489728;28;20327;-71
2021/04/12 11:17:00;;;;;;;3.33;3.03;;;7.40;38.80;;;;;;10489864;28;20708;-71
2021/04/12 11:22:21;;;;;;;3.73;3.50;;;7.40;38.80;;;;;;10487864;28;20286;-71
2021/04/12 11:28:00;;;;;;;4.37;3.97;;;7.50;38.80;;;;;;10478903;28;20311;-71
2021/04/12 11:33:41;;;;;;;3.90;3.63;;;7.50;39.60;;;;;;10478881;28;20587;-71
2021/04/12 11:38:48;;;;;;;3.70;3.50;;;7.50;38.80;;;;;;10476829;28;20239;-71
2021/04/12 11:43:54;;;;;;;3.53;3.23;;;7.50;38.30;;;;;;10486138;28;20257;-70
2021/04/12 11:49:05;;;;;;;2.80;2.60;;;7.60;37.40;;;;;;10487845;28;20251;-71
2021/04/12 11:54:13;;;;;;;2.83;2.63;;;7.60;38.20;;;;;;10488194;28;20322;-71
2021/04/12 11:59:35;;;;;;;2.60;2.40;;;7.60;37.90;;;;;;10490650;28;20232;-71
2021/04/12 12:04:42;;;;;;;2.63;2.43;;;7.50;38.10;;;;;;10482254;28;20250;-71
2021/04/12 12:09:49;;;;;;;3.03;2.83;;;7.50;37.70;;;;;;10487180;28;20295;-72
2021/04/12 12:15:05;;;;;;;3.00;2.80;;;7.50;38.10;;;;;;10488835;28;20262;-72
2021/04/12 12:20:17;;;;;;;2.63;2.43;;;7.50;38.80;;;;;;10490339;28;20305;-72
2021/04/12 12:25:33;;;;;;;2.63;2.43;;;7.50;38.80;;;;;;10488961;28;20335;-72
2021/04/12 12:30:47;;;;;;;2.70;2.50;;;7.50;38.80;;;;;;10482951;28;20244;-71
2021/04/12 12:36:02;;;;;;;2.50;2.30;;;7.50;38.40;;;;;;10486371;28;20228;-72
2021/04/12 12:41:15;;;;;;;2.70;2.50;;;7.50;38.80;;;;;;10487374;28;20660;-71
2021/04/12 12:46:23;;;;;;;2.47;2.33;;;7.50;38.40;;;;;;10485667;28;20269;-72
2021/04/12 12:51:30;;;;;;;3.30;2.70;;;7.60;38.80;;;;;;10464533;28;20640;-71
2021/04/12 12:56:37;;;;;;;2.83;2.63;;;7.60;38.10;;;;;;10467528;28;20238;-72
2021/04/12 13:01:42;;;;;;;2.70;2.50;;;7.60;38.90;;;;;;10466247;28;20231;-72
2021/04/12 13:06:48;;;;;;;3.67;2.83;;;7.60;37.80;;;;;;10473373;28;20317;-72
2021/04/12 13:11:54;;;;;;;3.17;2.97;;;7.70;37.50;;;;;;10483363;28;20315;-72
2021/04/12 13:16:58;;;;;;;3.03;2.83;;;7.80;37.60;;;;;;10486972;28;20293;-72
2021/04/12 13:22:03;;;;;;;3.07;2.87;;;7.90;37.30;;;;;;10490544;28;20239;-71
2021/04/12 13:27:12;;;;;;;3.23;2.93;;;8.00;37.50;;;;;;10488650;28;20325;-72
2021/04/12 13:32:19;;;;;;;3.40;3.17;;;8.10;37.80;;;;;;10491294;28;20255;-72
2021/04/12 13:37:26;;;;;;;3.30;3.00;;;8.10;37.40;;;;;;10481788;28;20362;-72
2021/04/12 13:42:34;;;;;;;4.00;3.20;;;8.10;37.40;;;;;;10491436;28;20381;-71
2021/04/12 13:47:44;;;;;;;4.27;3.97;;;8.20;37.80;;;;;;10493610;28;20238;-71
2021/04/12 13:52:52;;;;;;;7.20;5.20;;;8.20;37.50;;;;;;10485351;28;20232;-71
2021/04/12 13:57:59;;;;;;;3.80;3.50;;;8.30;38.20;;;;;;10487048;28;20228;-71
2021/04/12 14:03:06;;;;;;;6.23;5.40;;;8.30;37.30;;;;;;10490388;28;20347;-71
2021/04/12 14:08:18;;;;;;;4.40;3.90;;;8.30;37.20;;;;;;10489819;28;20768;-72
2021/04/12 14:13:26;;;;;;;3.50;3.20;;;8.30;37.90;;;;;;10489286;28;20589;-72
2021/04/12 14:18:39;;;;;;;4.17;3.63;;;8.20;37.40;;;;;;10490151;28;20266;-72
2021/04/12 14:23:47;;;;;;;4.27;3.93;;;8.20;38.60;;;;;;10494769;28;20244;-72
2021/04/12 14:28:54;;;;;;;4.13;3.83;;;8.10;37.80;;;;;;10491360;28;20307;-72
2021/04/12 14:34:04;;;;;;;4.07;3.77;;;8.10;38.10;;;;;;10493661;28;20311;-72
2021/04/12 14:39:10;;;;;;;4.67;4.27;;;8.10;38.50;;;;;;10494950;28;21271;-72
2021/04/12 14:44:21;;;;;;;4.80;4.40;;;8.10;38.10;;;;;;10482017;28;20224;-71
2021/04/12 14:49:34;;;;;;;5.20;4.80;;;8.10;39.20;;;;;;10491823;28;20688;-71
2021/04/12 14:54:40;;;;;;;4.97;4.57;;;8.20;38.90;;;;;;10480278;28;20219;-71
2021/04/12 14:59:48;;;;;;;3.30;2.90;;;8.20;37.50;;;;;;10487118;28;20232;-70
2021/04/12 15:04:58;;;;;;;4.00;3.60;;;8.00;36.40;;;;;;10490788;28;20224;-70
2021/04/12 15:10:04;;;;;;;4.90;4.57;;;7.80;36.50;;;;;;10490015;28;20247;-70
2021/04/12 15:15:14;;;;;;;10.40;9.50;;;7.50;36.60;;;;;;10490422;28;20315;-70
2021/04/12 15:20:21;;;;;;;7.60;6.90;;;7.40;37.10;;;;;;10487305;28;20280;-71
2021/04/12 15:25:27;;;;;;;6.53;5.93;;;7.40;37.90;;;;;;10474557;28;20308;-71
2021/04/12 15:30:35;;;;;;;4.43;4.07;;;7.30;37.20;;;;;;10491612;28;20248;-71
2021/04/12 15:35:40;;;;;;;4.03;3.60;;;7.40;37.40;;;;;;10496044;28;20228;-71
2021/04/12 15:40:47;;;;;;;4.30;3.37;;;7.40;37.10;;;;;;10492524;28;20289;-71
2021/04/12 15:46:01;;;;;;;4.23;3.70;;;7.30;37.20;;;;;;10489156;28;20261;-72
2021/04/12 15:51:13;;;;;;;2.80;2.57;;;7.30;37.40;;;;;;10489870;28;20331;-71
2021/04/12 15:56:23;;;;;;;3.10;2.80;;;7.30;37.20;;;;;;10486209;28;20316;-72
2021/04/12 16:01:31;;;;;;;3.07;2.87;;;7.20;37.40;;;;;;10491810;28;20343;-72
2021/04/12 16:06:36;;;;;;;3.00;2.80;;;7.30;37.10;;;;;;10488873;28;20749;-71
2021/04/12 16:11:48;;;;;;;3.67;3.37;;;7.30;37.00;;;;;;10489794;28;20282;-72
2021/04/12 16:16:54;;;;;;;3.87;3.57;;;7.30;37.20;;;;;;10490246;28;20315;-72
2021/04/12 16:22:02;;;;;;;4.07;3.77;;;7.40;37.20;;;;;;10484413;28;20626;-72
2021/04/12 16:27:11;;;;;;;4.33;3.93;;;7.50;37.60;;;;;;10491066;28;20319;-72
2021/04/12 16:32:24;;;;;;;3.97;3.63;;;7.60;37.60;;;;;;10495191;28;20238;-72
2021/04/12 16:37:31;;;;;;;25.33;15.20;;;7.70;37.90;;;;;;10490234;28;20875;-72
2021/04/12 16:42:37;;;;;;;4.57;4.10;;;7.80;37.20;;;;;;10489797;28;20280;-72
2021/04/12 16:47:43;;;;;;;5.00;4.40;;;7.80;37.10;;;;;;10488543;28;20303;-72
2021/04/12 16:52:52;;;;;;;4.30;3.90;;;7.90;37.40;;;;;;10486813;28;20228;-72
2021/04/12 16:57:58;;;;;;;4.00;3.70;;;8.00;37.20;;;;;;10490067;28;20565;-72
2021/04/12 17:03:30;;;;;;;4.47;4.07;;;8.00;37.30;;;;;;10477798;28;20312;-72
2021/04/12 17:08:45;;;;;;;4.53;4.20;;;8.00;37.90;;;;;;10491555;28;20224;-72
2021/04/12 17:13:55;;;;;;;6.50;5.23;;;8.10;37.40;;;;;;10502918;28;20306;-72
2021/04/12 17:19:04;;;;;;;5.20;4.70;;;8.10;37.00;;;;;;10490073;28;20650;-72
2021/04/12 17:24:20;;;;;;;7.23;6.50;;;8.00;37.00;;;;;;10483839;28;20256;-72
2021/04/12 17:29:28;;;;;;;7.70;6.90;;;7.90;37.60;;;;;;10481583;28;20306;-72
2021/04/12 17:34:37;;;;;;;8.27;7.43;;;7.80;37.10;;;;;;10489413;28;20735;-73
2021/04/12 17:39:42;;;;;;;7.90;6.83;;;7.80;37.70;;;;;;10526765;28;20645;-73
2021/04/12 17:44:52;;;;;;;6.43;5.83;;;7.70;37.20;;;;;;10515777;28;20319;-73
2021/04/12 17:50:00;;;;;;;8.30;7.07;;;7.60;36.90;;;;;;10515767;28;20752;-73
2021/04/12 17:55:11;;;;;;;6.83;6.23;;;7.60;37.60;;;;;;10521244;28;20727;-73
2021/04/12 18:00:24;;;;;;;7.30;6.70;;;7.60;38.10;;;;;;10509747;28;20748;-73
2021/04/12 18:05:31;;;;;;;5.67;5.17;;;7.60;38.30;;;;;;10499026;28;20315;-69
2021/04/12 18:10:39;;;;;;;5.87;5.37;;;7.60;37.90;;;;;;10493210;28;20219;-69
2021/04/12 18:15:44;;;;;;;6.20;5.60;;;7.50;37.70;;;;;;10488672;28;20314;-69
2021/04/12 18:20:54;;;;;;;5.80;5.30;;;7.50;37.60;;;;;;10509445;28;20277;-69
2021/04/12 18:26:02;;;;;;;8.13;7.33;;;7.60;38.10;;;;;;10500010;28;20292;-70
2021/04/12 18:31:19;;;;;;;7.73;7.13;;;7.50;38.20;;;;;;10500542;28;20227;-71
2021/04/12 18:36:29;;;;;;;6.70;6.13;;;7.60;38.30;;;;;;10507783;28;20285;-71
2021/04/12 18:41:40;;;;;;;14.57;12.83;;;7.60;38.10;;;;;;10503904;28;20255;-72
2021/04/12 18:47:08;;;;;;;8.57;7.77;;;7.60;38.90;;;;;;10506151;28;20247;-73
2021/04/12 18:52:19;;;;;;;13.73;11.23;;;7.60;38.90;;;;;;10508166;28;20299;-73
2021/04/12 18:57:34;;;;;;;12.87;11.43;;;7.60;38.70;;;;;;10493118;28;20680;-73
2021/04/12 19:03:01;;;;;;;9.57;8.60;;;7.60;38.90;;;;;;10498555;28;20708;-72
2021/04/12 19:08:11;;;;;;;11.23;8.53;;;7.60;38.90;;;;;;10503416;28;20261;-72
2021/04/12 19:13:24;;;;;;;9.40;8.50;;;7.50;38.60;;;;;;10505427;28;20224;-72
2021/04/12 19:18:41;;;;;;;9.23;8.37;;;7.50;38.80;;;;;;10508449;28;20236;-72
2021/04/12 19:23:54;;;;;;;10.10;9.20;;;7.50;38.80;;;;;;10506461;28;20742;-73
2021/04/12 19:29:20;;;;;;;10.13;9.23;;;7.50;38.80;;;;;;10510273;28;20238;-73
2021/04/12 19:34:31;;;;;;;10.50;9.50;;;7.50;38.80;;;;;;10503579;28;20230;-73
2021/04/12 19:39:46;;;;;;;10.17;9.33;;;7.50;38.60;;;;;;10488944;28;20272;-73
2021/04/12 19:45:16;;;;;;;12.83;11.60;;;7.50;38.80;;;;;;10484068;28;20311;-73
2021/04/12 19:50:21;;;;;;;11.93;10.83;;;7.50;39.60;;;;;;10491607;28;21016;-73
2021/04/12 19:55:30;;;;;;;11.83;10.80;;;7.50;37.90;;;;;;10470400;28;20243;-73
2021/04/12 20:00:38;;;;;;;11.97;10.77;;;7.50;38.30;;;;;;10480221;28;20261;-73
2021/04/12 20:05:43;;;;;;;10.57;9.57;;;7.50;38.30;;;;;;10505164;28;20252;-73
2021/04/12 20:11:28;;;;;;;11.07;10.17;;;7.50;38.20;;;;;;10499100;28;20228;-73
2021/04/12 20:16:44;;;;;;;11.83;10.83;;;7.50;38.80;;;;;;10499809;28;20230;-73
2021/04/12 20:21:52;;;;;;;11.73;10.63;;;7.60;38.90;;;;;;10512028;28;20730;-73
2021/04/12 20:27:12;;;;;;;12.27;11.10;;;7.60;38.30;;;;;;10503962;28;20221;-73
2021/04/12 20:32:23;;;;;;;12.60;11.40;;;7.60;38.60;;;;;;10514832;28;20241;-73
2021/04/12 20:37:37;;;;;;;12.00;11.00;;;7.50;38.40;;;;;;10496425;28;20223;-73
2021/04/12 20:43:12;;;;;;;11.50;10.50;;;7.50;38.80;;;;;;10510124;28;20220;-73
2021/04/12 20:48:18;;;;;;;11.90;10.90;;;7.40;38.60;;;;;;10516519;28;20790;-73
2021/04/12 20:53:25;;;;;;;12.37;11.27;;;7.40;38.10;;;;;;10505590;28;20232;-73
2021/04/12 20:58:45;;;;;;;12.10;10.97;;;7.30;37.70;;;;;;10516835;28;20745;-73
2021/04/12 21:03:57;;;;;;;11.07;10.17;;;7.30;38.40;;;;;;10507289;28;20255;-73
2021/04/12 21:09:06;;;;;;;11.30;10.30;;;7.20;37.90;;;;;;10516129;28;20247;-73
2021/04/12 21:14:15;;;;;;;10.63;9.63;;;7.20;37.70;;;;;;10498663;28;20289;-73
2021/04/12 21:19:22;;;;;;;10.90;10.00;;;7.10;37.80;;;;;;10507952;28;20318;-73
2021/04/12 21:24:43;;;;;;;10.27;9.37;;;7.10;37.90;;;;;;10510152;28;20236;-73
2021/04/12 21:30:02;;;;;;;10.97;9.97;;;7.10;37.60;;;;;;10506141;28;20244;-73
2021/04/12 21:35:10;;;;;;;10.33;9.43;;;7.10;38.50;;;;;;10508807;28;20228;-73
2021/04/12 21:40:26;;;;;;;9.80;9.00;;;7.20;38.10;;;;;;10510945;28;20252;-73
2021/04/12 21:45:37;;;;;;;9.57;8.77;;;7.10;38.50;;;;;;10503574;28;20303;-73
2021/04/12 21:50:42;;;;;;;9.23;8.43;;;7.10;37.50;;;;;;10497352;28;20216;-73
2021/04/12 21:56:03;;;;;;;8.93;8.13;;;7.10;37.40;;;;;;10505134;28;20307;-73
2021/04/12 22:01:16;;;;;;;8.97;8.27;;;7.00;38.10;;;;;;10516280;28;20252;-73
2021/04/12 22:06:26;;;;;;;9.30;8.50;;;7.00;38.20;;;;;;10511735;28;20247;-73
2021/04/12 22:11:52;;;;;;;9.47;8.47;;;6.90;37.70;;;;;;10499749;28;20923;-73
2021/04/12 22:17:11;;;;;;;10.13;9.13;;;6.90;38.30;;;;;;10511506;28;20658;-73
2021/04/12 22:22:21;;;;;;;10.50;9.57;;;6.80;38.20;;;;;;10516021;28;20624;-73
2021/04/12 22:27:44;;;;;;;9.93;8.93;;;6.80;38.30;;;;;;10505505;28;20224;-73
2021/04/12 22:32:58;;;;;;;9.47;8.60;;;6.80;38.20;;;;;;10511762;28;20967;-73
2021/04/12 22:43:33;;;;;;;9.80;8.93;;;6.70;38.20;;;;;;10534604;28;20659;-73
2021/04/12 22:49:01;;;;;;;9.30;8.50;;;6.60;38.10;;;;;;10509146;28;20221;-73
2021/04/12 22:54:17;;;;;;;8.90;8.10;;;6.60;38.10;;;;;;10505195;28;20224;-73
2021/04/12 22:59:21;;;;;;;8.43;7.63;;;6.50;38.20;;;;;;10506865;28;20255;-73
2021/04/12 23:05:04;;;;;;;8.80;8.00;;;6.50;38.00;;;;;;10493548;28;20244;-73
2021/04/12 23:10:26;;;;;;;7.93;7.23;;;6.40;38.70;;;;;;10493994;28;20224;-73
2021/04/12 23:15:31;;;;;;;7.87;7.17;;;6.40;37.90;;;;;;10493521;28;20319;-73
2021/04/12 23:20:34;;;;;;;8.50;7.70;;;6.40;37.90;;;;;;10493769;28;20235;-74
2021/04/12 23:25:38;;;;;;;7.87;7.17;;;6.40;37.90;;;;;;10493538;28;20258;-74
2021/04/12 23:30:42;;;;;;;7.17;6.57;;;6.50;38.00;;;;;;10494139;28;20232;-73
2021/04/12 23:35:52;;;;;;;6.80;6.30;;;6.50;38.00;;;;;;10489412;28;20607;-73
2021/04/12 23:41:00;;;;;;;6.50;6.00;;;6.60;38.10;;;;;;10487431;28;20669;-72
2021/04/12 23:46:05;;;;;;;7.07;6.50;;;6.70;38.70;;;;;;10488291;28;20702;-73
2021/04/12 23:51:28;;;;;;;8.40;6.13;;;6.80;38.30;;;;;;10488908;28;20263;-73
2021/04/12 23:56:48;;;;;;;6.40;5.80;;;6.90;38.40;;;;;;10485724;28;20232;-72
